createdAt,value
2022-08-07T00:00:50.385Z,77.40
2022-08-07T00:02:41.222Z,77.50
2022-08-07T00:02:50.612Z,77.50
2022-08-07T00:03:49.337Z,77.50
2022-08-07T00:04:49.422Z,77.40
2022-08-07T00:05:49.341Z,77.61
2022-08-07T00:06:51.813Z,77.61
2022-08-07T00:07:50.665Z,77.31
2022-08-07T00:08:50.283Z,77.11
2022-08-07T00:10:04.766Z,77.11
2022-08-07T00:10:57.507Z,77.00
2022-08-07T00:11:55.600Z,76.90
2022-08-07T00:12:59.931Z,77.11
2022-08-07T00:13:50.210Z,77.31
2022-08-07T00:14:49.197Z,77.31
2022-08-07T00:15:51.439Z,77.31
2022-08-07T00:16:49.208Z,77.20
2022-08-07T00:17:49.403Z,77.20
2022-08-07T00:18:49.151Z,77.31
2022-08-07T00:20:00.557Z,77.40
2022-08-07T00:20:50.136Z,77.61
2022-08-07T00:21:56.915Z,77.50
2022-08-07T00:22:51.762Z,77.40
2022-08-07T00:23:49.077Z,77.40
2022-08-07T00:24:49.068Z,77.61
2022-08-07T00:25:59.096Z,77.50
2022-08-07T00:27:06.519Z,77.40
2022-08-07T00:27:52.515Z,77.50
2022-08-07T00:28:56.561Z,77.50
2022-08-07T00:29:49.997Z,77.61
2022-08-07T00:30:49.007Z,77.61
2022-08-07T00:31:50.060Z,77.70
2022-08-07T00:32:48.964Z,77.70
2022-08-07T00:33:49.184Z,77.70
2022-08-07T00:34:48.948Z,77.70
2022-08-07T00:35:49.607Z,77.81
2022-08-07T00:36:48.914Z,78.01
2022-08-07T00:37:48.897Z,78.01
2022-08-07T00:38:49.115Z,78.01
2022-08-07T00:39:54.342Z,78.01
2022-08-07T00:40:49.862Z,78.11
2022-08-07T00:41:53.784Z,78.31
2022-08-07T00:42:50.331Z,78.31
2022-08-07T00:44:00.627Z,78.41
2022-08-07T00:44:49.802Z,78.41
2022-08-07T00:45:48.791Z,78.41
2022-08-07T00:46:48.780Z,78.41
2022-08-07T00:48:09.145Z,78.51
2022-08-07T00:48:51.732Z,78.41
2022-08-07T00:50:20.736Z,78.71
2022-08-07T00:50:51.138Z,78.71
2022-08-07T00:51:57.333Z,78.85
2022-08-07T00:52:49.706Z,78.81
2022-08-07T00:53:50.046Z,78.75
2022-08-07T00:54:53.722Z,78.85
2022-08-07T00:56:02.483Z,78.75
2022-08-07T00:56:50.093Z,78.81
2022-08-07T00:57:55.805Z,78.85
2022-08-07T00:58:50.099Z,78.81
2022-08-07T00:59:48.608Z,78.81
2022-08-07T01:00:53.765Z,78.91
2022-08-07T01:01:49.657Z,79.02
2022-08-07T01:02:49.577Z,78.91
2022-08-07T01:03:56.253Z,79.02
2022-08-07T01:04:49.553Z,79.02
2022-08-07T01:05:51.685Z,78.91
2022-08-07T01:06:49.515Z,79.02
2022-08-07T01:07:48.503Z,79.02
2022-08-07T01:08:52.799Z,79.11
2022-08-07T01:10:04.991Z,79.11
2022-08-07T01:10:56.474Z,79.02
2022-08-07T01:12:27.670Z,79.11
2022-08-07T01:12:53.688Z,79.22
2022-08-07T01:13:55.949Z,79.32
2022-08-07T01:14:49.430Z,79.36
2022-08-07T01:16:05.258Z,79.36
2022-08-07T01:16:49.391Z,79.36
2022-08-07T01:17:48.411Z,79.56
2022-08-07T01:18:48.368Z,79.66
2022-08-07T01:19:54.417Z,79.66
2022-08-07T01:20:57.518Z,79.76
2022-08-07T01:21:49.328Z,79.86
2022-08-07T01:23:12.107Z,79.76
2022-08-07T01:23:49.310Z,79.86
2022-08-07T01:24:48.524Z,79.76
2022-08-07T01:25:55.491Z,79.76
2022-08-07T01:26:52.127Z,79.76
2022-08-07T01:27:51.376Z,79.96
2022-08-07T01:28:48.543Z,80.06
2022-08-07T01:29:48.457Z,79.96
2022-08-07T01:30:48.206Z,79.86
2022-08-07T01:31:48.780Z,79.86
2022-08-07T01:32:48.192Z,79.56
2022-08-07T01:33:55.077Z,79.66
2022-08-07T01:34:49.393Z,79.66
2022-08-07T01:35:54.073Z,79.66
2022-08-07T01:36:52.555Z,79.56
2022-08-07T01:37:49.122Z,79.46
2022-08-07T01:38:48.103Z,79.56
2022-08-07T01:39:48.372Z,79.56
2022-08-07T01:40:48.084Z,79.76
2022-08-07T01:42:01.508Z,79.66
2022-08-07T01:42:58.507Z,79.56
2022-08-07T01:43:49.031Z,79.76
2022-08-07T01:44:48.258Z,79.86
2022-08-07T01:45:48.014Z,79.86
2022-08-07T01:46:49.001Z,79.86
2022-08-07T01:48:21.064Z,79.86
2022-08-07T01:48:48.991Z,79.56
2022-08-07T01:49:47.960Z,79.66
2022-08-07T01:50:49.189Z,79.56
2022-08-07T01:52:03.110Z,79.69
2022-08-07T01:52:49.794Z,79.90
2022-08-07T01:54:08.454Z,80.10
2022-08-07T01:54:48.888Z,80.10
2022-08-07T01:55:48.152Z,80.10
2022-08-07T01:56:49.106Z,79.96
2022-08-07T01:58:06.471Z,79.96
2022-08-07T01:58:48.844Z,80.00
2022-08-07T01:59:48.307Z,80.16
2022-08-07T02:00:49.247Z,80.20
2022-08-07T02:02:01.893Z,80.30
2022-08-07T02:03:12.204Z,80.50
2022-08-07T02:03:50.971Z,80.16
2022-08-07T02:04:56.273Z,80.26
2022-08-07T02:05:59.664Z,80.16
2022-08-07T02:06:48.734Z,80.06
2022-08-07T02:07:51.075Z,80.06
2022-08-07T02:08:47.714Z,79.76
2022-08-07T02:09:52.922Z,79.86
2022-08-07T02:10:55.152Z,80.16
2022-08-07T02:12:04.991Z,79.86
2022-08-07T02:12:50.084Z,79.96
2022-08-07T02:13:58.068Z,79.66
2022-08-07T02:14:48.646Z,79.86
2022-08-07T02:15:47.860Z,79.46
2022-08-07T02:16:48.617Z,79.76
2022-08-07T02:17:49.870Z,79.86
2022-08-07T02:18:47.603Z,79.96
2022-08-07T02:20:06.670Z,79.46
2022-08-07T02:20:48.801Z,79.46
2022-08-07T02:21:56.604Z,79.66
2022-08-07T02:22:53.003Z,79.46
2022-08-07T02:23:49.319Z,79.25
2022-08-07T02:24:48.581Z,79.16
2022-08-07T02:26:32.060Z,79.16
2022-08-07T02:26:48.474Z,78.85
2022-08-07T02:27:52.199Z,78.75
2022-08-07T02:28:48.446Z,78.65
2022-08-07T02:29:54.224Z,78.65
2022-08-07T02:30:48.426Z,78.55
2022-08-07T02:31:47.412Z,78.55
2022-08-07T02:33:07.214Z,78.55
2022-08-07T02:34:03.888Z,78.55
2022-08-07T02:34:51.013Z,78.55
2022-08-07T02:36:30.865Z,78.55
2022-08-07T02:36:48.341Z,78.45
2022-08-07T02:37:47.333Z,78.35
2022-08-07T02:38:50.679Z,78.25
2022-08-07T02:40:02.225Z,78.45
2022-08-07T02:40:51.532Z,78.25
2022-08-07T02:41:54.268Z,78.15
2022-08-07T02:42:48.272Z,78.25
2022-08-07T02:43:48.964Z,78.15
2022-08-07T02:44:48.405Z,78.25
2022-08-07T02:45:58.378Z,78.25
2022-08-07T02:46:52.736Z,78.25
2022-08-07T02:47:49.178Z,78.55
2022-08-07T02:48:55.249Z,78.65
2022-08-07T02:49:58.492Z,78.75
2022-08-07T02:50:48.407Z,78.85
2022-08-07T02:51:52.015Z,78.75
2022-08-07T02:52:48.732Z,78.85
2022-08-07T02:53:47.134Z,78.85
2022-08-07T02:54:47.115Z,78.96
2022-08-07T02:56:03.891Z,79.05
2022-08-07T02:56:48.339Z,79.05
2022-08-07T02:57:47.081Z,79.16
2022-08-07T02:58:48.356Z,79.16
2022-08-07T02:59:55.002Z,79.05
2022-08-07T03:00:48.093Z,79.25
2022-08-07T03:01:52.261Z,79.46
2022-08-07T03:02:54.301Z,79.66
2022-08-07T03:03:49.822Z,79.90
2022-08-07T03:04:46.991Z,79.90
2022-08-07T03:05:46.973Z,79.86
2022-08-07T03:06:48.066Z,79.90
2022-08-07T03:08:07.514Z,80.00
2022-08-07T03:08:47.932Z,80.00
2022-08-07T03:09:50.635Z,80.10
2022-08-07T03:10:47.911Z,80.30
2022-08-07T03:11:52.315Z,80.20
2022-08-07T03:12:47.879Z,80.30
2022-08-07T03:13:49.544Z,80.50
2022-08-07T03:14:48.552Z,80.40
2022-08-07T03:15:56.235Z,80.50
2022-08-07T03:16:48.074Z,80.60
2022-08-07T03:17:53.587Z,80.50
2022-08-07T03:18:47.798Z,80.60
2022-08-07T03:19:55.158Z,80.90
2022-08-07T03:20:47.777Z,80.90
2022-08-07T03:21:50.755Z,81.21
2022-08-07T03:22:50.365Z,81.07
2022-08-07T03:24:17.850Z,81.21
2022-08-07T03:24:47.732Z,81.10
2022-08-07T03:25:46.714Z,81.01
2022-08-07T03:26:57.842Z,81.07
2022-08-07T03:27:59.564Z,81.21
2022-08-07T03:28:47.670Z,81.21
2022-08-07T03:29:50.543Z,81.30
2022-08-07T03:30:46.651Z,81.41
2022-08-07T03:31:46.692Z,81.61
2022-08-07T03:32:57.121Z,81.61
2022-08-07T03:33:47.603Z,81.61
2022-08-07T03:34:47.522Z,81.51
2022-08-07T03:35:50.553Z,81.51
2022-08-07T03:36:46.797Z,81.51
2022-08-07T03:37:53.579Z,81.51
2022-08-07T03:38:47.536Z,81.30
2022-08-07T03:39:59.803Z,81.41
2022-08-07T03:40:47.512Z,81.30
2022-08-07T03:41:50.898Z,81.37
2022-08-07T03:42:49.322Z,81.37
2022-08-07T03:43:56.816Z,81.17
2022-08-07T03:44:53.645Z,81.27
2022-08-07T03:45:48.565Z,81.37
2022-08-07T03:47:13.624Z,81.17
2022-08-07T03:47:51.157Z,80.97
2022-08-07T03:49:03.067Z,81.07
2022-08-07T03:49:48.048Z,81.07
2022-08-07T03:50:52.040Z,81.07
2022-08-07T03:51:55.336Z,80.97
2022-08-07T03:52:47.305Z,80.97
2022-08-07T03:54:05.694Z,81.07
2022-08-07T03:54:54.896Z,81.07
2022-08-07T03:55:58.365Z,81.07
2022-08-07T03:57:03.543Z,81.17
2022-08-07T03:58:34.959Z,81.27
2022-08-07T03:59:08.066Z,81.17
2022-08-07T04:00:02.969Z,81.37
2022-08-07T04:00:54.014Z,81.17
2022-08-07T04:01:47.264Z,81.17
2022-08-07T04:02:47.434Z,81.17
2022-08-07T04:03:49.824Z,81.37
2022-08-07T04:04:47.158Z,81.37
2022-08-07T04:05:46.149Z,81.67
2022-08-07T04:06:46.129Z,81.67
2022-08-07T04:07:47.785Z,81.67
2022-08-07T04:08:46.100Z,81.57
2022-08-07T04:09:50.185Z,81.57
2022-08-07T04:10:53.999Z,81.67
2022-08-07T04:12:24.709Z,81.57
2022-08-07T04:12:47.247Z,81.91
2022-08-07T04:14:10.457Z,81.81
2022-08-07T04:14:47.837Z,81.81
2022-08-07T04:15:45.996Z,82.11
2022-08-07T04:16:58.165Z,82.11
2022-08-07T04:18:30.898Z,82.01
2022-08-07T04:18:59.609Z,81.91
2022-08-07T04:19:52.745Z,82.01
2022-08-07T04:20:54.405Z,81.91
2022-08-07T04:21:47.948Z,81.81
2022-08-07T04:22:53.714Z,81.71
2022-08-07T04:24:03.863Z,81.81
2022-08-07T04:24:46.924Z,82.01
2022-08-07T04:25:45.898Z,81.91
2022-08-07T04:26:45.864Z,81.81
2022-08-07T04:27:58.999Z,81.81
2022-08-07T04:28:47.123Z,82.01
2022-08-07T04:29:58.906Z,82.21
2022-08-07T04:30:57.123Z,82.31
2022-08-07T04:32:03.240Z,82.51
2022-08-07T04:32:47.877Z,82.31
2022-08-07T04:33:45.994Z,82.11
2022-08-07T04:34:45.760Z,82.11
2022-08-07T04:35:50.482Z,82.21
2022-08-07T04:36:48.719Z,82.01
2022-08-07T04:38:02.969Z,82.01
2022-08-07T04:38:46.969Z,82.01
2022-08-07T04:39:47.981Z,81.81
2022-08-07T04:40:51.731Z,81.67
2022-08-07T04:41:50.271Z,81.77
2022-08-07T04:42:45.656Z,81.57
2022-08-07T04:44:09.965Z,81.47
2022-08-07T04:45:02.645Z,81.37
2022-08-07T04:46:01.049Z,81.37
2022-08-07T04:47:05.058Z,81.47
2022-08-07T04:48:01.308Z,81.37
2022-08-07T04:48:46.805Z,81.17
2022-08-07T04:49:47.628Z,81.17
2022-08-07T04:50:52.982Z,81.17
2022-08-07T04:51:46.532Z,81.17
2022-08-07T04:52:51.304Z,81.37
2022-08-07T04:54:05.348Z,81.47
2022-08-07T04:54:50.655Z,81.57
2022-08-07T04:58:14.029Z,81.67
2022-08-07T04:58:14.419Z,81.67
2022-08-07T04:58:16.446Z,81.47
2022-08-07T04:59:09.218Z,81.37
2022-08-07T05:00:09.791Z,81.27
2022-08-07T05:00:46.480Z,81.07
2022-08-07T05:01:45.680Z,81.17
2022-08-07T05:02:46.386Z,81.27
2022-08-07T05:04:06.846Z,81.17
2022-08-07T05:04:50.043Z,80.87
2022-08-07T05:05:53.131Z,80.87
2022-08-07T05:06:51.694Z,80.77
2022-08-07T05:07:48.200Z,80.52
2022-08-07T05:09:01.075Z,80.43
2022-08-07T05:09:47.018Z,80.43
2022-08-07T05:10:45.287Z,80.43
2022-08-07T05:11:58.130Z,80.32
2022-08-07T05:12:53.040Z,80.32
2022-08-07T05:14:55.794Z,80.02
2022-08-07T05:14:59.114Z,80.02
2022-08-07T05:15:46.471Z,80.12
2022-08-07T05:16:45.461Z,80.32
2022-08-07T05:17:52.578Z,80.43
2022-08-07T05:18:46.179Z,80.43
2022-08-07T05:19:45.482Z,80.52
2022-08-07T05:20:45.402Z,80.52
2022-08-07T05:22:00.316Z,80.52
2022-08-07T05:22:46.124Z,80.52
2022-08-07T05:23:45.135Z,80.22
2022-08-07T05:24:45.125Z,80.12
2022-08-07T05:26:11.071Z,80.12
2022-08-07T05:26:46.274Z,80.12
2022-08-07T05:28:16.408Z,80.08
2022-08-07T05:28:46.649Z,80.08
2022-08-07T05:29:51.341Z,80.19
2022-08-07T05:30:47.111Z,80.08
2022-08-07T05:31:51.199Z,79.99
2022-08-07T05:32:45.990Z,79.88
2022-08-07T05:34:00.883Z,79.99
2022-08-07T05:34:45.972Z,79.99
2022-08-07T05:35:44.957Z,79.99
2022-08-07T05:36:45.177Z,79.79
2022-08-07T05:37:44.928Z,79.99
2022-08-07T05:39:00.980Z,79.79
2022-08-07T05:40:13.408Z,79.58
2022-08-07T05:40:51.648Z,79.79
2022-08-07T05:42:02.290Z,79.68
2022-08-07T05:42:55.619Z,79.54
2022-08-07T05:44:08.354Z,79.54
2022-08-07T05:44:46.733Z,79.48
2022-08-07T05:45:47.588Z,79.74
2022-08-07T05:46:45.058Z,79.54
2022-08-07T05:48:01.090Z,79.54
2022-08-07T05:48:59.107Z,79.35
2022-08-07T05:49:45.762Z,79.14
2022-08-07T05:50:44.761Z,78.94
2022-08-07T05:51:46.476Z,78.94
2022-08-07T05:52:44.747Z,79.24
2022-08-07T05:54:13.308Z,79.44
2022-08-07T05:54:55.713Z,79.44
2022-08-07T05:56:02.379Z,79.24
2022-08-07T05:56:45.920Z,79.24
2022-08-07T05:57:45.090Z,79.14
2022-08-07T05:58:52.565Z,79.14
2022-08-07T05:59:57.506Z,78.90
2022-08-07T06:00:46.354Z,78.90
2022-08-07T06:01:45.934Z,78.40
2022-08-07T06:02:44.599Z,78.20
2022-08-07T06:03:53.702Z,78.20
2022-08-07T06:04:45.576Z,77.80
2022-08-07T06:05:49.120Z,77.80
2022-08-07T06:06:46.233Z,77.90
2022-08-07T06:08:14.321Z,78.00
2022-08-07T06:08:46.739Z,77.90
2022-08-07T06:10:03.162Z,77.56
2022-08-07T06:10:45.502Z,77.46
2022-08-07T06:11:44.715Z,77.56
2022-08-07T06:12:44.474Z,77.56
2022-08-07T06:14:12.751Z,77.66
2022-08-07T06:14:49.630Z,77.56
2022-08-07T06:15:44.437Z,78.27
2022-08-07T06:16:44.654Z,78.06
2022-08-07T06:17:50.677Z,77.26
2022-08-07T06:18:51.523Z,77.36
2022-08-07T06:19:47.796Z,77.76
2022-08-07T06:20:51.039Z,77.26
2022-08-07T06:22:15.283Z,77.16
2022-08-07T06:23:01.849Z,77.06
2022-08-07T06:24:38.150Z,76.32
2022-08-07T06:24:53.295Z,76.02
2022-08-07T06:25:54.363Z,76.32
2022-08-07T06:26:45.529Z,76.12
2022-08-07T06:28:01.165Z,75.31
2022-08-07T06:28:45.277Z,75.62
2022-08-07T06:29:44.250Z,75.51
2022-08-07T06:30:46.144Z,75.62
2022-08-07T06:31:49.639Z,75.62
2022-08-07T06:32:44.288Z,75.42
2022-08-07T06:33:44.199Z,75.82
2022-08-07T06:34:45.304Z,75.71
2022-08-07T06:35:47.824Z,75.11
2022-08-07T06:36:45.406Z,75.11
2022-08-07T06:37:44.745Z,75.42
2022-08-07T06:38:58.604Z,75.42
2022-08-07T06:40:15.611Z,75.11
2022-08-07T06:40:45.807Z,74.81
2022-08-07T06:42:02.018Z,75.11
2022-08-07T06:42:46.556Z,74.71
2022-08-07T06:43:46.628Z,75.01
2022-08-07T06:44:45.071Z,74.51
2022-08-07T06:45:45.045Z,74.51
2022-08-07T06:46:44.071Z,74.31
2022-08-07T06:47:57.806Z,74.51
2022-08-07T06:48:45.010Z,74.61
2022-08-07T06:49:51.153Z,74.51
2022-08-07T06:50:47.919Z,74.71
2022-08-07T06:51:50.003Z,74.71
2022-08-07T06:52:45.200Z,74.51
2022-08-07T06:55:28.140Z,74.51
2022-08-07T06:55:31.492Z,74.31
2022-08-07T06:55:53.337Z,74.11
2022-08-07T06:56:49.783Z,74.27
2022-08-07T06:57:52.093Z,74.57
2022-08-07T07:00:11.759Z,74.18
2022-08-07T07:00:14.269Z,74.37
2022-08-07T07:00:44.858Z,74.18
2022-08-07T07:01:50.999Z,74.18
2022-08-07T07:02:54.313Z,73.67
2022-08-07T07:03:49.244Z,73.37
2022-08-07T07:04:54.716Z,73.47
2022-08-07T07:06:04.689Z,73.57
2022-08-07T07:07:00.432Z,73.87
2022-08-07T07:07:59.623Z,73.37
2022-08-07T07:08:46.616Z,73.07
2022-08-07T07:09:43.744Z,73.27
2022-08-07T07:10:47.523Z,73.47
2022-08-07T07:12:08.217Z,73.77
2022-08-07T07:12:48.962Z,73.87
2022-08-07T07:13:58.510Z,73.97
2022-08-07T07:14:44.681Z,73.57
2022-08-07T07:15:43.672Z,73.47
2022-08-07T07:16:50.074Z,73.27
2022-08-07T07:17:45.219Z,72.87
2022-08-07T07:18:47.967Z,73.17
2022-08-07T07:19:57.540Z,73.44
2022-08-07T07:20:44.618Z,73.47
2022-08-07T07:22:12.257Z,73.54
2022-08-07T07:24:08.487Z,72.83
2022-08-07T07:24:09.335Z,73.24
2022-08-07T07:25:02.356Z,72.83
2022-08-07T07:26:34.427Z,72.83
2022-08-07T07:26:51.678Z,73.44
2022-08-07T07:27:56.071Z,73.13
2022-08-07T07:29:28.537Z,72.74
2022-08-07T07:30:09.224Z,72.43
2022-08-07T07:30:44.484Z,72.33
2022-08-07T07:31:44.698Z,72.94
2022-08-07T07:32:43.464Z,73.54
2022-08-07T07:33:43.446Z,73.03
2022-08-07T07:34:44.451Z,73.13
2022-08-07T07:35:54.770Z,73.13
2022-08-07T07:36:47.890Z,73.84
2022-08-07T07:37:52.589Z,73.50
2022-08-07T07:38:46.167Z,73.20
2022-08-07T07:39:52.054Z,73.00
2022-08-07T07:40:44.357Z,72.90
2022-08-07T07:41:50.764Z,72.80
2022-08-07T07:42:51.370Z,72.80
2022-08-07T07:44:13.748Z,72.53
2022-08-07T07:44:44.294Z,73.03
2022-08-07T07:46:37.071Z,72.33
2022-08-07T07:46:54.459Z,72.83
2022-08-07T07:47:52.684Z,74.04
2022-08-07T07:48:44.797Z,73.50
2022-08-07T07:50:36.313Z,72.74
2022-08-07T07:50:44.313Z,73.50
2022-08-07T07:51:57.976Z,73.10
2022-08-07T07:52:44.292Z,72.40
2022-08-07T07:53:51.329Z,73.00
2022-08-07T07:54:51.074Z,73.07
2022-08-07T07:55:45.358Z,72.97
2022-08-07T07:56:44.462Z,72.06
2022-08-07T07:57:52.059Z,72.27
2022-08-07T07:58:44.137Z,72.86
2022-08-07T07:59:52.498Z,72.97
2022-08-07T08:00:45.521Z,71.77
2022-08-07T08:02:03.812Z,71.66
2022-08-07T08:03:04.768Z,72.16
2022-08-07T08:04:09.572Z,72.36
2022-08-07T08:04:44.224Z,72.16
2022-08-07T08:05:54.950Z,71.77
2022-08-07T08:06:50.812Z,71.86
2022-08-07T08:07:59.882Z,71.77
2022-08-07T08:08:43.984Z,71.96
2022-08-07T08:09:52.518Z,71.93
2022-08-07T08:10:43.954Z,71.93
2022-08-07T08:11:47.176Z,71.63
2022-08-07T08:12:52.315Z,71.53
2022-08-07T08:13:54.957Z,71.43
2022-08-07T08:14:45.254Z,71.53
2022-08-07T08:15:58.946Z,71.56
2022-08-07T08:16:49.386Z,71.77
2022-08-07T08:18:17.958Z,71.73
2022-08-07T08:18:45.013Z,71.73
2022-08-07T08:20:18.886Z,71.56
2022-08-07T08:20:43.835Z,71.96
2022-08-07T08:21:55.731Z,71.96
2022-08-07T08:22:54.365Z,72.16
2022-08-07T08:23:43.790Z,72.36
2022-08-07T08:24:45.715Z,71.83
2022-08-07T08:25:49.420Z,71.06
2022-08-07T08:26:43.749Z,70.86
2022-08-07T08:27:51.995Z,71.06
2022-08-07T08:28:45.074Z,71.36
2022-08-07T08:29:54.726Z,71.26
2022-08-07T08:30:51.315Z,71.56
2022-08-07T08:32:18.251Z,71.36
2022-08-07T08:32:48.674Z,71.36
2022-08-07T08:33:49.045Z,71.36
2022-08-07T08:34:44.952Z,71.77
2022-08-07T08:35:47.026Z,71.46
2022-08-07T08:36:46.290Z,71.46
2022-08-07T08:38:01.604Z,72.09
2022-08-07T08:38:44.555Z,71.96
2022-08-07T08:39:54.994Z,72.27
2022-08-07T08:40:43.830Z,72.16
2022-08-07T08:41:57.542Z,71.90
2022-08-07T08:42:43.772Z,72.09
2022-08-07T08:43:50.575Z,72.36
2022-08-07T08:44:44.418Z,72.06
2022-08-07T08:45:59.634Z,71.86
2022-08-07T08:46:44.783Z,71.26
2022-08-07T08:47:52.784Z,71.06
2022-08-07T08:48:44.402Z,70.43
2022-08-07T08:49:46.530Z,70.62
2022-08-07T08:50:43.460Z,70.83
2022-08-07T08:51:49.726Z,70.73
2022-08-07T08:52:53.780Z,70.53
2022-08-07T08:53:43.398Z,71.43
2022-08-07T08:54:42.379Z,70.62
2022-08-07T08:55:55.095Z,70.53
2022-08-07T08:56:47.362Z,70.12
2022-08-07T08:57:42.588Z,70.12
2022-08-07T08:58:42.332Z,70.53
2022-08-07T08:59:48.247Z,70.62
2022-08-07T09:00:43.315Z,70.76
2022-08-07T09:01:44.117Z,70.86
2022-08-07T09:02:42.350Z,71.16
2022-08-07T09:03:47.358Z,71.46
2022-08-07T09:04:43.260Z,71.86
2022-08-07T09:05:42.243Z,70.76
2022-08-07T09:06:42.715Z,70.83
2022-08-07T09:07:46.555Z,70.93
2022-08-07T09:08:43.440Z,70.53
2022-08-07T09:09:42.191Z,70.83
2022-08-07T09:10:44.372Z,70.43
2022-08-07T09:11:43.267Z,70.03
2022-08-07T09:12:43.144Z,69.82
2022-08-07T09:13:43.272Z,69.73
2022-08-07T09:14:42.420Z,69.93
2022-08-07T09:16:23.131Z,69.82
2022-08-07T09:16:43.104Z,69.62
2022-08-07T09:17:59.495Z,69.23
2022-08-07T09:18:52.889Z,69.93
2022-08-07T09:19:52.214Z,69.62
2022-08-07T09:20:43.080Z,69.23
2022-08-07T09:22:10.367Z,69.23
2022-08-07T09:24:32.306Z,68.49
2022-08-07T09:24:33.529Z,68.69
2022-08-07T09:25:00.635Z,68.39
2022-08-07T09:25:42.977Z,68.89
2022-08-07T09:26:47.884Z,69.79
2022-08-07T09:27:59.911Z,69.19
2022-08-07T09:29:24.514Z,68.49
2022-08-07T09:30:06.114Z,68.49
2022-08-07T09:30:44.168Z,68.16
2022-08-07T09:31:48.560Z,67.46
2022-08-07T09:32:42.895Z,67.66
2022-08-07T09:33:57.084Z,67.79
2022-08-07T09:34:42.907Z,68.49
2022-08-07T09:36:03.237Z,68.69
2022-08-07T09:36:46.733Z,68.49
2022-08-07T09:37:48.495Z,68.59
2022-08-07T09:38:43.044Z,69.12
2022-08-07T09:39:54.354Z,69.19
2022-08-07T09:40:42.782Z,69.32
2022-08-07T09:41:43.350Z,69.62
2022-08-07T09:42:42.764Z,69.59
2022-08-07T09:44:06.446Z,69.69
2022-08-07T09:44:58.649Z,69.39
2022-08-07T09:47:49.462Z,69.19
2022-08-07T09:47:52.193Z,68.59
2022-08-07T09:47:57.883Z,68.79
2022-08-07T09:48:56.089Z,67.99
2022-08-07T09:50:02.723Z,69.09
2022-08-07T09:50:42.688Z,69.29
2022-08-07T09:52:10.209Z,68.89
2022-08-07T09:52:42.627Z,68.89
2022-08-07T09:53:48.876Z,69.19
2022-08-07T09:54:42.647Z,68.99
2022-08-07T09:56:03.580Z,68.99
2022-08-07T09:56:42.577Z,68.69
2022-08-07T09:57:46.721Z,68.79
2022-08-07T09:58:42.806Z,69.59
2022-08-07T09:59:46.206Z,68.19
2022-08-07T10:00:41.528Z,67.96
2022-08-07T10:01:52.419Z,68.36
2022-08-07T10:02:55.501Z,68.46
2022-08-07T10:04:05.964Z,68.66
2022-08-07T10:04:47.542Z,68.16
2022-08-07T10:05:59.724Z,68.05
2022-08-07T10:06:42.447Z,67.86
2022-08-07T10:07:52.793Z,68.16
2022-08-07T10:08:42.425Z,68.16
2022-08-07T10:09:59.257Z,67.66
2022-08-07T10:12:03.365Z,67.05
2022-08-07T10:12:52.594Z,66.66
2022-08-07T10:14:00.166Z,67.66
2022-08-07T10:14:42.583Z,67.86
2022-08-07T10:15:44.549Z,67.55
2022-08-07T10:16:41.382Z,67.05
2022-08-07T10:18:00.940Z,67.16
2022-08-07T10:18:42.540Z,66.96
2022-08-07T10:19:41.282Z,66.66
2022-08-07T10:20:41.278Z,66.75
2022-08-07T10:22:14.399Z,65.72
2022-08-07T10:22:43.142Z,65.33
2022-08-07T10:24:06.892Z,65.52
2022-08-07T10:24:42.237Z,64.62
2022-08-07T10:25:43.014Z,64.52
2022-08-07T10:26:41.200Z,64.52
2022-08-07T10:27:45.986Z,64.49
2022-08-07T10:28:43.418Z,64.99
2022-08-07T10:29:46.031Z,64.49
2022-08-07T10:30:42.158Z,64.09
2022-08-07T10:31:41.146Z,63.89
2022-08-07T10:32:53.369Z,64.99
2022-08-07T10:34:06.569Z,65.59
2022-08-07T10:34:42.108Z,65.69
2022-08-07T10:35:55.348Z,65.59
2022-08-07T10:36:42.075Z,64.99
2022-08-07T10:38:00.120Z,64.79
2022-08-07T10:38:49.551Z,64.00
2022-08-07T10:40:03.022Z,64.06
2022-08-07T10:40:42.025Z,63.76
2022-08-07T10:41:51.537Z,63.96
2022-08-07T10:42:42.002Z,64.16
2022-08-07T10:43:41.226Z,64.26
2022-08-07T10:44:45.275Z,64.26
2022-08-07T10:45:44.767Z,63.23
2022-08-07T10:46:41.950Z,62.34
2022-08-07T10:47:51.594Z,62.53
2022-08-07T10:48:42.178Z,63.33
2022-08-07T10:49:49.412Z,63.73
2022-08-07T10:50:41.900Z,63.53
2022-08-07T10:52:02.186Z,64.26
2022-08-07T10:52:42.635Z,64.26
2022-08-07T10:53:44.765Z,64.36
2022-08-07T10:54:40.849Z,64.16
2022-08-07T10:55:40.830Z,64.33
2022-08-07T10:56:40.822Z,64.03
2022-08-07T10:57:40.808Z,63.73
2022-08-07T10:58:41.046Z,62.40
2022-08-07T10:59:47.200Z,63.00
2022-08-07T11:00:50.274Z,63.10
2022-08-07T11:01:51.677Z,62.57
2022-08-07T11:02:41.813Z,62.67
2022-08-07T11:03:52.473Z,63.27
2022-08-07T11:04:41.725Z,60.08
2022-08-07T11:05:50.502Z,59.55
2022-08-07T11:06:41.696Z,58.95
2022-08-07T11:07:59.007Z,58.62
2022-08-07T11:08:41.932Z,58.72
2022-08-07T11:10:10.665Z,60.12
2022-08-07T11:10:41.641Z,61.22
2022-08-07T11:11:51.881Z,61.02
2022-08-07T11:12:40.616Z,60.72
2022-08-07T11:14:45.194Z,59.85
2022-08-07T11:15:00.318Z,59.92
2022-08-07T11:15:41.575Z,59.52
2022-08-07T11:16:41.575Z,58.25
2022-08-07T11:17:43.274Z,58.55
2022-08-07T11:18:41.774Z,58.65
2022-08-07T11:19:40.524Z,58.06
2022-08-07T11:20:40.625Z,58.65
2022-08-07T11:21:40.642Z,59.35
2022-08-07T11:22:45.961Z,59.65
2022-08-07T11:23:41.473Z,59.85
2022-08-07T11:24:45.667Z,60.15
2022-08-07T11:25:48.265Z,60.55
2022-08-07T11:26:48.079Z,59.85
2022-08-07T11:28:01.257Z,59.55
2022-08-07T11:28:41.423Z,59.55
2022-08-07T11:29:47.317Z,59.38
2022-08-07T11:30:42.382Z,58.98
2022-08-07T11:31:40.374Z,58.78
2022-08-07T11:32:40.514Z,58.48
2022-08-07T11:33:53.892Z,58.38
2022-08-07T11:34:41.581Z,58.48
2022-08-07T11:36:00.700Z,58.78
2022-08-07T11:36:41.300Z,58.68
2022-08-07T11:37:57.952Z,58.88
2022-08-07T11:38:41.278Z,59.08
2022-08-07T11:40:00.261Z,59.15
2022-08-07T11:40:41.496Z,59.15
2022-08-07T11:42:00.363Z,58.85
2022-08-07T11:42:41.221Z,58.15
2022-08-07T11:43:54.285Z,58.06
2022-08-07T11:44:52.086Z,58.06
2022-08-07T11:45:53.457Z,58.65
2022-08-07T11:46:41.178Z,59.15
2022-08-07T11:47:59.123Z,58.85
2022-08-07T11:48:46.691Z,58.23
2022-08-07T11:50:18.499Z,57.13
2022-08-07T11:50:44.604Z,57.23
2022-08-07T11:51:46.714Z,57.73
2022-08-07T11:52:41.088Z,57.43
2022-08-07T11:53:43.318Z,57.43
2022-08-07T11:54:41.062Z,57.63
2022-08-07T11:56:13.969Z,57.93
2022-08-07T11:56:41.034Z,58.72
2022-08-07T11:57:58.471Z,58.80
2022-08-07T11:58:41.012Z,59.09
2022-08-07T12:00:12.183Z,58.83
2022-08-07T12:00:41.221Z,59.12
2022-08-07T12:02:00.576Z,59.30
2022-08-07T12:02:40.987Z,58.40
2022-08-07T12:03:45.119Z,58.33
2022-08-07T12:04:41.170Z,58.23
2022-08-07T12:05:47.159Z,58.33
2022-08-07T12:06:50.847Z,58.83
2022-08-07T12:07:41.152Z,59.05
2022-08-07T12:08:39.889Z,58.85
2022-08-07T12:09:39.919Z,59.35
2022-08-07T12:10:41.903Z,59.15
2022-08-07T12:11:43.428Z,59.52
2022-08-07T12:12:40.838Z,59.12
2022-08-07T12:13:44.714Z,58.62
2022-08-07T12:14:40.809Z,58.72
2022-08-07T12:16:05.723Z,59.42
2022-08-07T12:16:40.786Z,59.22
2022-08-07T12:17:58.962Z,59.00
2022-08-07T12:18:45.559Z,58.59
2022-08-07T12:20:02.621Z,59.00
2022-08-07T12:20:40.957Z,58.80
2022-08-07T12:22:35.759Z,58.10
2022-08-07T12:22:47.240Z,58.50
2022-08-07T12:24:05.318Z,58.50
2022-08-07T12:24:40.705Z,58.29
2022-08-07T12:26:05.915Z,57.00
2022-08-07T12:26:46.632Z,56.70
2022-08-07T12:28:05.857Z,56.40
2022-08-07T12:28:44.927Z,56.40
2022-08-07T12:29:40.609Z,56.30
2022-08-07T12:30:39.847Z,56.21
2022-08-07T12:32:01.701Z,55.80
2022-08-07T12:32:40.585Z,55.91
2022-08-07T12:34:00.882Z,55.80
2022-08-07T12:34:40.541Z,56.01
2022-08-07T12:35:39.772Z,56.51
2022-08-07T12:36:39.531Z,56.51
2022-08-07T12:38:09.784Z,56.70
2022-08-07T12:38:42.689Z,57.20
2022-08-07T12:39:42.948Z,57.00
2022-08-07T12:40:50.397Z,57.20
2022-08-07T12:41:49.248Z,57.60
2022-08-07T12:42:40.449Z,57.70
2022-08-07T12:44:02.348Z,57.60
2022-08-07T12:44:40.429Z,57.80
2022-08-07T12:45:39.638Z,57.20
2022-08-07T12:46:39.537Z,57.10
2022-08-07T12:47:39.830Z,57.13
2022-08-07T12:48:52.194Z,57.23
2022-08-07T12:49:51.544Z,57.43
2022-08-07T12:50:49.071Z,57.53
2022-08-07T12:51:51.302Z,57.73
2022-08-07T12:52:40.324Z,57.53
2022-08-07T12:54:02.675Z,57.82